sensor_id;sensor_type;location;lat;lon;timestamp;P1;durP1;ratioP1;P2;durP2;ratioP2
19673;SDS011;9986;50.610;7.230;2022-07-18T00:00:09;1.43;;;1.33;;
19673;SDS011;9986;50.610;7.230;2022-07-18T00:02:47;4.60;;;1.53;;
19673;SDS011;9986;50.610;7.230;2022-07-18T00:05:25;1.23;;;1.13;;
19673;SDS011;9986;50.610;7.230;2022-07-18T00:08:02;1.60;;;1.23;;
19673;SDS011;9986;50.610;7.230;2022-07-18T00:13:10;3.97;;;1.40;;
19673;SDS011;9986;50.610;7.230;2022-07-18T00:15:50;1.50;;;1.30;;
19673;SDS011;9986;50.610;7.230;2022-07-18T00:18:28;4.90;;;1.63;;
19673;SDS011;9986;50.610;7.230;2022-07-18T00:21:11;1.60;;;1.50;;
19673;SDS011;9986;50.610;7.230;2022-07-18T00:26:25;1.40;;;1.27;;
19673;SDS011;9986;50.610;7.230;2022-07-18T00:29:03;3.60;;;1.50;;
19673;SDS011;9986;50.610;7.230;2022-07-18T00:36:53;2.30;;;1.50;;
19673;SDS011;9986;50.610;7.230;2022-07-18T00:42:09;3.73;;;1.30;;
19673;SDS011;9986;50.610;7.230;2022-07-18T00:47:23;2.60;;;1.30;;
19673;SDS011;9986;50.610;7.230;2022-07-18T00:50:01;2.33;;;1.47;;
19673;SDS011;9986;50.610;7.230;2022-07-18T00:52:39;2.30;;;1.50;;
19673;SDS011;9986;50.610;7.230;2022-07-18T00:55:19;1.33;;;1.20;;
19673;SDS011;9986;50.610;7.230;2022-07-18T00:57:57;1.57;;;1.47;;
19673;SDS011;9986;50.610;7.230;2022-07-18T01:00:35;2.63;;;1.50;;
19673;SDS011;9986;50.610;7.230;2022-07-18T01:06:03;2.87;;;1.60;;
19673;SDS011;9986;50.610;7.230;2022-07-18T01:08:41;4.63;;;1.70;;
19673;SDS011;9986;50.610;7.230;2022-07-18T01:11:19;1.20;;;1.10;;
19673;SDS011;9986;50.610;7.230;2022-07-18T01:13:57;1.50;;;1.40;;
19673;SDS011;9986;50.610;7.230;2022-07-18T01:16:35;3.20;;;1.33;;
19673;SDS011;9986;50.610;7.230;2022-07-18T01:19:13;1.43;;;1.33;;
19673;SDS011;9986;50.610;7.230;2022-07-18T01:21:51;2.00;;;1.47;;
19673;SDS011;9986;50.610;7.230;2022-07-18T01:24:29;2.53;;;1.57;;
19673;SDS011;9986;50.610;7.230;2022-07-18T01:27:08;3.70;;;1.70;;
19673;SDS011;9986;50.610;7.230;2022-07-18T01:32:24;2.17;;;1.57;;
19673;SDS011;9986;50.610;7.230;2022-07-18T01:35:01;1.33;;;1.20;;
19673;SDS011;9986;50.610;7.230;2022-07-18T01:40:22;1.73;;;1.30;;
19673;SDS011;9986;50.610;7.230;2022-07-18T01:42:59;1.53;;;1.40;;
19673;SDS011;9986;50.610;7.230;2022-07-18T01:50:45;2.70;;;1.53;;
19673;SDS011;9986;50.610;7.230;2022-07-18T01:55:55;2.43;;;1.97;;
19673;SDS011;9986;50.610;7.230;2022-07-18T01:58:35;2.80;;;1.70;;
19673;SDS011;9986;50.610;7.230;2022-07-18T02:01:13;1.70;;;1.60;;
19673;SDS011;9986;50.610;7.230;2022-07-18T02:06:27;1.63;;;1.53;;
19673;SDS011;9986;50.610;7.230;2022-07-18T02:09:05;2.03;;;1.60;;
19673;SDS011;9986;50.610;7.230;2022-07-18T02:11:44;2.80;;;1.90;;
19673;SDS011;9986;50.610;7.230;2022-07-18T02:16:58;2.30;;;1.77;;
19673;SDS011;9986;50.610;7.230;2022-07-18T02:19:35;1.37;;;1.27;;
19673;SDS011;9986;50.610;7.230;2022-07-18T02:22:18;4.60;;;2.10;;
19673;SDS011;9986;50.610;7.230;2022-07-18T02:27:25;6.07;;;2.00;;
19673;SDS011;9986;50.610;7.230;2022-07-18T02:30:03;2.33;;;1.97;;
19673;SDS011;9986;50.610;7.230;2022-07-18T02:32:42;3.60;;;1.90;;
19673;SDS011;9986;50.610;7.230;2022-07-18T02:35:20;2.83;;;1.80;;
19673;SDS011;9986;50.610;7.230;2022-07-18T02:37:57;2.03;;;1.60;;
19673;SDS011;9986;50.610;7.230;2022-07-18T02:40:35;3.57;;;2.20;;
19673;SDS011;9986;50.610;7.230;2022-07-18T02:43:13;2.50;;;1.73;;
19673;SDS011;9986;50.610;7.230;2022-07-18T02:48:23;2.60;;;2.00;;
19673;SDS011;9986;50.610;7.230;2022-07-18T02:51:00;1.73;;;1.57;;
19673;SDS011;9986;50.610;7.230;2022-07-18T02:56:14;2.20;;;1.70;;
19673;SDS011;9986;50.610;7.230;2022-07-18T02:58:52;2.60;;;1.83;;
19673;SDS011;9986;50.610;7.230;2022-07-18T03:01:30;4.10;;;2.17;;
19673;SDS011;9986;50.610;7.230;2022-07-18T03:04:07;2.50;;;1.97;;
19673;SDS011;9986;50.610;7.230;2022-07-18T03:06:45;2.10;;;1.67;;
19673;SDS011;9986;50.610;7.230;2022-07-18T03:11:53;1.83;;;1.70;;
19673;SDS011;9986;50.610;7.230;2022-07-18T03:14:32;2.67;;;2.13;;
19673;SDS011;9986;50.610;7.230;2022-07-18T03:19:39;2.50;;;1.77;;
19673;SDS011;9986;50.610;7.230;2022-07-18T03:22:17;2.40;;;2.20;;
19673;SDS011;9986;50.610;7.230;2022-07-18T03:24:49;2.27;;;1.70;;
19673;SDS011;9986;50.610;7.230;2022-07-18T03:30:03;2.37;;;2.17;;
19673;SDS011;9986;50.610;7.230;2022-07-18T03:37:48;2.47;;;2.10;;
19673;SDS011;9986;50.610;7.230;2022-07-18T03:43:05;1.97;;;1.83;;
19673;SDS011;9986;50.610;7.230;2022-07-18T03:48:12;2.70;;;2.17;;
19673;SDS011;9986;50.610;7.230;2022-07-18T03:50:52;4.00;;;2.10;;
19673;SDS011;9986;50.610;7.230;2022-07-18T03:53:30;2.20;;;1.80;;
19673;SDS011;9986;50.610;7.230;2022-07-18T03:56:08;2.47;;;2.00;;
19673;SDS011;9986;50.610;7.230;2022-07-18T03:58:46;3.47;;;1.93;;
19673;SDS011;9986;50.610;7.230;2022-07-18T04:01:24;2.37;;;1.90;;
19673;SDS011;9986;50.610;7.230;2022-07-18T04:04:08;2.40;;;1.93;;
19673;SDS011;9986;50.610;7.230;2022-07-18T04:06:45;2.87;;;1.60;;
19673;SDS011;9986;50.610;7.230;2022-07-18T04:09:23;5.93;;;2.27;;
19673;SDS011;9986;50.610;7.230;2022-07-18T04:12:04;2.43;;;1.90;;
19673;SDS011;9986;50.610;7.230;2022-07-18T04:14:42;2.87;;;2.10;;
19673;SDS011;9986;50.610;7.230;2022-07-18T04:17:20;2.83;;;1.90;;
19673;SDS011;9986;50.610;7.230;2022-07-18T04:22:27;2.00;;;1.80;;
19673;SDS011;9986;50.610;7.230;2022-07-18T04:27:47;3.93;;;2.00;;
19673;SDS011;9986;50.610;7.230;2022-07-18T04:35:31;2.83;;;2.07;;
19673;SDS011;9986;50.610;7.230;2022-07-18T04:40:39;4.87;;;1.97;;
19673;SDS011;9986;50.610;7.230;2022-07-18T04:45:53;3.93;;;2.20;;
19673;SDS011;9986;50.610;7.230;2022-07-18T04:48:31;3.60;;;2.37;;
19673;SDS011;9986;50.610;7.230;2022-07-18T04:51:10;2.07;;;1.80;;
19673;SDS011;9986;50.610;7.230;2022-07-18T04:53:49;3.20;;;2.03;;
19673;SDS011;9986;50.610;7.230;2022-07-18T04:56:27;3.53;;;1.90;;
19673;SDS011;9986;50.610;7.230;2022-07-18T04:59:05;2.50;;;1.77;;
19673;SDS011;9986;50.610;7.230;2022-07-18T05:06:57;3.13;;;2.10;;
19673;SDS011;9986;50.610;7.230;2022-07-18T05:09:40;1.90;;;1.80;;
19673;SDS011;9986;50.610;7.230;2022-07-18T05:14:47;2.90;;;2.00;;
19673;SDS011;9986;50.610;7.230;2022-07-18T05:17:25;3.43;;;2.23;;
19673;SDS011;9986;50.610;7.230;2022-07-18T05:20:05;3.47;;;2.00;;
19673;SDS011;9986;50.610;7.230;2022-07-18T05:22:43;2.97;;;1.90;;
19673;SDS011;9986;50.610;7.230;2022-07-18T05:25:22;2.33;;;2.13;;
19673;SDS011;9986;50.610;7.230;2022-07-18T05:28:00;2.77;;;2.23;;
19673;SDS011;9986;50.610;7.230;2022-07-18T05:30:37;4.60;;;2.30;;
19673;SDS011;9986;50.610;7.230;2022-07-18T05:33:15;2.63;;;1.97;;
19673;SDS011;9986;50.610;7.230;2022-07-18T05:38:23;3.13;;;1.90;;
19673;SDS011;9986;50.610;7.230;2022-07-18T05:41:07;3.40;;;1.83;;
19673;SDS011;9986;50.610;7.230;2022-07-18T05:43:38;3.07;;;1.87;;
19673;SDS011;9986;50.610;7.230;2022-07-18T05:48:52;3.47;;;1.87;;
19673;SDS011;9986;50.610;7.230;2022-07-18T05:53:59;2.17;;;1.80;;
19673;SDS011;9986;50.610;7.230;2022-07-18T05:56:37;2.40;;;1.97;;
19673;SDS011;9986;50.610;7.230;2022-07-18T05:59:15;2.07;;;1.70;;
19673;SDS011;9986;50.610;7.230;2022-07-18T06:01:53;3.77;;;1.67;;
19673;SDS011;9986;50.610;7.230;2022-07-18T06:04:33;2.00;;;1.60;;
19673;SDS011;9986;50.610;7.230;2022-07-18T06:07:11;4.27;;;1.87;;
19673;SDS011;9986;50.610;7.230;2022-07-18T06:12:25;2.73;;;1.80;;
19673;SDS011;9986;50.610;7.230;2022-07-18T06:17:34;7.03;;;1.87;;
19673;SDS011;9986;50.610;7.230;2022-07-18T06:22:49;3.23;;;2.07;;
19673;SDS011;9986;50.610;7.230;2022-07-18T06:25:29;3.57;;;1.80;;
19673;SDS011;9986;50.610;7.230;2022-07-18T06:28:07;4.80;;;1.70;;
19673;SDS011;9986;50.610;7.230;2022-07-18T06:30:47;3.23;;;2.33;;
19673;SDS011;9986;50.610;7.230;2022-07-18T06:33:31;3.70;;;2.13;;
19673;SDS011;9986;50.610;7.230;2022-07-18T06:38:39;3.63;;;1.80;;
19673;SDS011;9986;50.610;7.230;2022-07-18T06:41:17;5.27;;;1.70;;
19673;SDS011;9986;50.610;7.230;2022-07-18T06:43:54;6.17;;;1.90;;
19673;SDS011;9986;50.610;7.230;2022-07-18T06:49:08;2.17;;;1.60;;
19673;SDS011;9986;50.610;7.230;2022-07-18T06:51:46;2.23;;;1.73;;
19673;SDS011;9986;50.610;7.230;2022-07-18T06:54:24;3.63;;;1.90;;
19673;SDS011;9986;50.610;7.230;2022-07-18T06:57:02;5.53;;;1.70;;
19673;SDS011;9986;50.610;7.230;2022-07-18T06:59:40;6.93;;;1.80;;
19673;SDS011;9986;50.610;7.230;2022-07-18T07:02:21;3.43;;;1.93;;
19673;SDS011;9986;50.610;7.230;2022-07-18T07:04:58;5.17;;;1.93;;
19673;SDS011;9986;50.610;7.230;2022-07-18T07:10:06;4.27;;;1.50;;
19673;SDS011;9986;50.610;7.230;2022-07-18T07:18:00;4.70;;;2.03;;
19673;SDS011;9986;50.610;7.230;2022-07-18T07:20:38;4.63;;;1.53;;
19673;SDS011;9986;50.610;7.230;2022-07-18T07:23:15;2.60;;;1.73;;
19673;SDS011;9986;50.610;7.230;2022-07-18T07:25:54;4.67;;;1.40;;
19673;SDS011;9986;50.610;7.230;2022-07-18T07:31:08;2.27;;;1.50;;
19673;SDS011;9986;50.610;7.230;2022-07-18T07:33:46;2.97;;;1.97;;
19673;SDS011;9986;50.610;7.230;2022-07-18T07:36:24;2.40;;;1.73;;
19673;SDS011;9986;50.610;7.230;2022-07-18T07:39:02;3.87;;;1.70;;
19673;SDS011;9986;50.610;7.230;2022-07-18T07:41:40;3.87;;;1.53;;
19673;SDS011;9986;50.610;7.230;2022-07-18T07:44:18;3.40;;;1.43;;
19673;SDS011;9986;50.610;7.230;2022-07-18T07:49:32;6.43;;;2.10;;
19673;SDS011;9986;50.610;7.230;2022-07-18T07:52:10;5.60;;;2.13;;
19673;SDS011;9986;50.610;7.230;2022-07-18T07:54:47;4.27;;;1.50;;
19673;SDS011;9986;50.610;7.230;2022-07-18T07:57:25;4.37;;;1.83;;
19673;SDS011;9986;50.610;7.230;2022-07-18T08:00:04;5.80;;;1.67;;
19673;SDS011;9986;50.610;7.230;2022-07-18T08:02:50;2.80;;;1.50;;
19673;SDS011;9986;50.610;7.230;2022-07-18T08:08:07;3.73;;;1.40;;
19673;SDS011;9986;50.610;7.230;2022-07-18T08:10:48;4.67;;;1.57;;
19673;SDS011;9986;50.610;7.230;2022-07-18T08:13:26;3.50;;;1.50;;
19673;SDS011;9986;50.610;7.230;2022-07-18T08:18:33;1.67;;;1.23;;
19673;SDS011;9986;50.610;7.230;2022-07-18T08:21:14;3.00;;;1.10;;
19673;SDS011;9986;50.610;7.230;2022-07-18T08:26:30;2.67;;;1.20;;
19673;SDS011;9986;50.610;7.230;2022-07-18T08:29:08;1.17;;;1.03;;
19673;SDS011;9986;50.610;7.230;2022-07-18T08:31:48;1.73;;;1.00;;
19673;SDS011;9986;50.610;7.230;2022-07-18T08:34:26;2.47;;;1.10;;
19673;SDS011;9986;50.610;7.230;2022-07-18T08:37:05;3.63;;;1.67;;
19673;SDS011;9986;50.610;7.230;2022-07-18T08:39:46;3.53;;;1.33;;
19673;SDS011;9986;50.610;7.230;2022-07-18T08:42:25;2.17;;;0.93;;
19673;SDS011;9986;50.610;7.230;2022-07-18T08:45:04;8.50;;;1.80;;
19673;SDS011;9986;50.610;7.230;2022-07-18T08:47:48;3.30;;;1.03;;
19673;SDS011;9986;50.610;7.230;2022-07-18T08:50:26;2.93;;;1.00;;
19673;SDS011;9986;50.610;7.230;2022-07-18T08:53:04;2.43;;;1.47;;
19673;SDS011;9986;50.610;7.230;2022-07-18T08:58:18;4.10;;;1.23;;
19673;SDS011;9986;50.610;7.230;2022-07-18T09:01:02;1.67;;;1.03;;
19673;SDS011;9986;50.610;7.230;2022-07-18T09:06:13;2.23;;;1.00;;
19673;SDS011;9986;50.610;7.230;2022-07-18T09:14:22;2.37;;;1.33;;
19673;SDS011;9986;50.610;7.230;2022-07-18T09:17:06;1.77;;;1.03;;
19673;SDS011;9986;50.610;7.230;2022-07-18T09:19:57;3.13;;;1.10;;
19673;SDS011;9986;50.610;7.230;2022-07-18T09:22:36;3.10;;;1.10;;
19673;SDS011;9986;50.610;7.230;2022-07-18T09:25:15;2.13;;;1.10;;
19673;SDS011;9986;50.610;7.230;2022-07-18T09:27:53;2.43;;;1.10;;
19673;SDS011;9986;50.610;7.230;2022-07-18T09:30:32;1.40;;;0.93;;
19673;SDS011;9986;50.610;7.230;2022-07-18T09:33:10;5.40;;;1.47;;
19673;SDS011;9986;50.610;7.230;2022-07-18T09:35:49;3.13;;;0.90;;
19673;SDS011;9986;50.610;7.230;2022-07-18T09:41:05;4.60;;;1.13;;
19673;SDS011;9986;50.610;7.230;2022-07-18T09:43:44;0.97;;;0.93;;
19673;SDS011;9986;50.610;7.230;2022-07-18T09:46:22;4.00;;;1.07;;
19673;SDS011;9986;50.610;7.230;2022-07-18T09:49:08;2.42;;;1.20;;
19673;SDS011;9986;50.610;7.230;2022-07-18T09:52:01;2.13;;;1.10;;
19673;SDS011;9986;50.610;7.230;2022-07-18T09:57:23;2.43;;;0.90;;
19673;SDS011;9986;50.610;7.230;2022-07-18T10:00:02;3.90;;;0.88;;
19673;SDS011;9986;50.610;7.230;2022-07-18T10:02:43;2.08;;;1.10;;
19673;SDS011;9986;50.610;7.230;2022-07-18T10:05:22;1.47;;;1.10;;
19673;SDS011;9986;50.610;7.230;2022-07-18T10:08:05;2.87;;;0.90;;
19673;SDS011;9986;50.610;7.230;2022-07-18T10:10:46;3.60;;;1.20;;
19673;SDS011;9986;50.610;7.230;2022-07-18T10:15:54;5.37;;;1.10;;
19673;SDS011;9986;50.610;7.230;2022-07-18T10:18:36;1.30;;;0.90;;
19673;SDS011;9986;50.610;7.230;2022-07-18T10:21:14;2.55;;;1.02;;
19673;SDS011;9986;50.610;7.230;2022-07-18T10:23:52;2.77;;;0.90;;
19673;SDS011;9986;50.610;7.230;2022-07-18T10:26:32;0.93;;;0.88;;
19673;SDS011;9986;50.610;7.230;2022-07-18T10:32:02;2.85;;;1.10;;
19673;SDS011;9986;50.610;7.230;2022-07-18T10:37:16;2.08;;;1.22;;
19673;SDS011;9986;50.610;7.230;2022-07-18T10:39:57;1.72;;;1.00;;
19673;SDS011;9986;50.610;7.230;2022-07-18T10:42:35;2.58;;;0.90;;
19673;SDS011;9986;50.610;7.230;2022-07-18T10:47:45;2.92;;;1.10;;
19673;SDS011;9986;50.610;7.230;2022-07-18T10:50:23;1.72;;;0.90;;
19673;SDS011;9986;50.610;7.230;2022-07-18T10:55:38;1.80;;;1.05;;
19673;SDS011;9986;50.610;7.230;2022-07-18T11:01:00;3.35;;;1.17;;
19673;SDS011;9986;50.610;7.230;2022-07-18T11:03:39;2.30;;;1.10;;
19673;SDS011;9986;50.610;7.230;2022-07-18T11:06:17;3.05;;;1.10;;
19673;SDS011;9986;50.610;7.230;2022-07-18T11:08:55;2.55;;;1.10;;
19673;SDS011;9986;50.610;7.230;2022-07-18T11:18:00;2.85;;;1.02;;
19673;SDS011;9986;50.610;7.230;2022-07-18T11:20:40;2.40;;;1.30;;
19673;SDS011;9986;50.610;7.230;2022-07-18T11:23:19;3.10;;;1.12;;
19673;SDS011;9986;50.610;7.230;2022-07-18T11:25:59;3.05;;;1.07;;
19673;SDS011;9986;50.610;7.230;2022-07-18T11:28:47;2.65;;;1.30;;
19673;SDS011;9986;50.610;7.230;2022-07-18T11:31:26;2.52;;;1.10;;
19673;SDS011;9986;50.610;7.230;2022-07-18T11:34:06;3.90;;;1.42;;
19673;SDS011;9986;50.610;7.230;2022-07-18T11:39:30;2.70;;;1.77;;
19673;SDS011;9986;50.610;7.230;2022-07-18T11:42:08;2.55;;;1.30;;
19673;SDS011;9986;50.610;7.230;2022-07-18T11:44:58;2.95;;;1.10;;
19673;SDS011;9986;50.610;7.230;2022-07-18T11:47:38;4.53;;;1.15;;
19673;SDS011;9986;50.610;7.230;2022-07-18T11:50:16;2.35;;;1.17;;
19673;SDS011;9986;50.610;7.230;2022-07-18T11:55:32;4.15;;;1.45;;
19673;SDS011;9986;50.610;7.230;2022-07-18T12:00:48;1.85;;;0.95;;
19673;SDS011;9986;50.610;7.230;2022-07-18T12:03:26;2.85;;;1.07;;
19673;SDS011;9986;50.610;7.230;2022-07-18T12:08:34;3.35;;;1.60;;
19673;SDS011;9986;50.610;7.230;2022-07-18T12:11:18;1.50;;;1.00;;
19673;SDS011;9986;50.610;7.230;2022-07-18T12:14:00;4.05;;;1.60;;
19673;SDS011;9986;50.610;7.230;2022-07-18T12:16:39;5.05;;;1.65;;
19673;SDS011;9986;50.610;7.230;2022-07-18T12:19:17;4.22;;;2.77;;
19673;SDS011;9986;50.610;7.230;2022-07-18T12:27:33;2.90;;;1.37;;
19673;SDS011;9986;50.610;7.230;2022-07-18T12:30:11;3.62;;;1.15;;
19673;SDS011;9986;50.610;7.230;2022-07-18T12:32:50;7.08;;;1.45;;
19673;SDS011;9986;50.610;7.230;2022-07-18T12:35:31;2.85;;;1.22;;
19673;SDS011;9986;50.610;7.230;2022-07-18T12:43:24;4.20;;;1.62;;
19673;SDS011;9986;50.610;7.230;2022-07-18T12:46:02;7.53;;;1.35;;
19673;SDS011;9986;50.610;7.230;2022-07-18T12:51:17;1.47;;;0.90;;
19673;SDS011;9986;50.610;7.230;2022-07-18T12:53:54;3.05;;;1.22;;
19673;SDS011;9986;50.610;7.230;2022-07-18T12:59:02;1.98;;;1.20;;
19673;SDS011;9986;50.610;7.230;2022-07-18T13:01:40;2.37;;;1.45;;
19673;SDS011;9986;50.610;7.230;2022-07-18T13:04:17;3.00;;;1.62;;
19673;SDS011;9986;50.610;7.230;2022-07-18T13:06:56;2.45;;;1.42;;
19673;SDS011;9986;50.610;7.230;2022-07-18T13:09:40;7.40;;;1.60;;
19673;SDS011;9986;50.610;7.230;2022-07-18T13:12:18;2.37;;;1.37;;
19673;SDS011;9986;50.610;7.230;2022-07-18T13:14:56;2.30;;;1.20;;
19673;SDS011;9986;50.610;7.230;2022-07-18T13:17:36;3.17;;;1.32;;
19673;SDS011;9986;50.610;7.230;2022-07-18T13:20:13;6.35;;;1.27;;
19673;SDS011;9986;50.610;7.230;2022-07-18T13:22:59;3.47;;;1.17;;
19673;SDS011;9986;50.610;7.230;2022-07-18T13:30:47;2.22;;;1.20;;
19673;SDS011;9986;50.610;7.230;2022-07-18T13:35:54;3.00;;;1.60;;
19673;SDS011;9986;50.610;7.230;2022-07-18T13:38:32;2.90;;;1.52;;
19673;SDS011;9986;50.610;7.230;2022-07-18T13:43:39;1.52;;;1.40;;
19673;SDS011;9986;50.610;7.230;2022-07-18T13:46:17;6.60;;;1.50;;
19673;SDS011;9986;50.610;7.230;2022-07-18T13:48:56;1.82;;;1.00;;
19673;SDS011;9986;50.610;7.230;2022-07-18T13:51:38;2.45;;;1.47;;
19673;SDS011;9986;50.610;7.230;2022-07-18T13:54:22;4.08;;;1.45;;
19673;SDS011;9986;50.610;7.230;2022-07-18T13:57:05;5.17;;;1.37;;
19673;SDS011;9986;50.610;7.230;2022-07-18T13:59:43;3.42;;;1.40;;
19673;SDS011;9986;50.610;7.230;2022-07-18T14:02:24;4.58;;;1.20;;
19673;SDS011;9986;50.610;7.230;2022-07-18T14:05:01;3.20;;;1.62;;
19673;SDS011;9986;50.610;7.230;2022-07-18T14:10:10;3.37;;;1.57;;
19673;SDS011;9986;50.610;7.230;2022-07-18T14:12:51;4.78;;;1.52;;
19673;SDS011;9986;50.610;7.230;2022-07-18T14:15:28;4.55;;;1.70;;
19673;SDS011;9986;50.610;7.230;2022-07-18T14:18:06;4.58;;;1.57;;
19673;SDS011;9986;50.610;7.230;2022-07-18T14:23:27;3.25;;;2.72;;
19673;SDS011;9986;50.610;7.230;2022-07-18T14:28:45;2.77;;;1.45;;
19673;SDS011;9986;50.610;7.230;2022-07-18T14:34:00;1.75;;;1.20;;
19673;SDS011;9986;50.610;7.230;2022-07-18T14:36:40;2.92;;;1.40;;
19673;SDS011;9986;50.610;7.230;2022-07-18T14:39:17;2.45;;;1.27;;
19673;SDS011;9986;50.610;7.230;2022-07-18T14:41:58;3.90;;;1.35;;
19673;SDS011;9986;50.610;7.230;2022-07-18T14:44:36;6.83;;;2.15;;
19673;SDS011;9986;50.610;7.230;2022-07-18T14:47:20;3.52;;;1.62;;
19673;SDS011;9986;50.610;7.230;2022-07-18T14:50:01;5.58;;;1.50;;
19673;SDS011;9986;50.610;7.230;2022-07-18T14:55:10;4.45;;;1.85;;
19673;SDS011;9986;50.610;7.230;2022-07-18T14:57:47;4.45;;;1.42;;
19673;SDS011;9986;50.610;7.230;2022-07-18T15:00:25;2.10;;;1.45;;
19673;SDS011;9986;50.610;7.230;2022-07-18T15:03:03;5.10;;;1.47;;
19673;SDS011;9986;50.610;7.230;2022-07-18T15:05:41;2.58;;;1.40;;
19673;SDS011;9986;50.610;7.230;2022-07-18T15:10:55;1.77;;;1.45;;
19673;SDS011;9986;50.610;7.230;2022-07-18T15:13:32;6.75;;;1.77;;
19673;SDS011;9986;50.610;7.230;2022-07-18T15:16:10;1.80;;;1.27;;
19673;SDS011;9986;50.610;7.230;2022-07-18T15:18:48;2.55;;;1.27;;
19673;SDS011;9986;50.610;7.230;2022-07-18T15:21:26;1.37;;;1.15;;
19673;SDS011;9986;50.610;7.230;2022-07-18T15:23:57;2.33;;;1.07;;
19673;SDS011;9986;50.610;7.230;2022-07-18T15:26:35;6.85;;;2.00;;
19673;SDS011;9986;50.610;7.230;2022-07-18T15:29:12;3.92;;;1.60;;
19673;SDS011;9986;50.610;7.230;2022-07-18T15:34:19;4.45;;;1.20;;
19673;SDS011;9986;50.610;7.230;2022-07-18T15:37:00;3.98;;;1.42;;
19673;SDS011;9986;50.610;7.230;2022-07-18T15:39:38;2.80;;;1.40;;
19673;SDS011;9986;50.610;7.230;2022-07-18T15:45:01;4.25;;;1.57;;
19673;SDS011;9986;50.610;7.230;2022-07-18T15:50:15;5.28;;;1.42;;
19673;SDS011;9986;50.610;7.230;2022-07-18T15:53:00;4.78;;;1.27;;
19673;SDS011;9986;50.610;7.230;2022-07-18T15:58:14;5.05;;;1.55;;
19673;SDS011;9986;50.610;7.230;2022-07-18T16:00:52;3.30;;;1.25;;
19673;SDS011;9986;50.610;7.230;2022-07-18T16:03:30;3.55;;;1.17;;
19673;SDS011;9986;50.610;7.230;2022-07-18T16:08:37;2.12;;;1.10;;
19673;SDS011;9986;50.610;7.230;2022-07-18T16:11:14;2.70;;;1.60;;
19673;SDS011;9986;50.610;7.230;2022-07-18T16:13:52;3.42;;;1.20;;
19673;SDS011;9986;50.610;7.230;2022-07-18T16:16:34;7.58;;;1.70;;
19673;SDS011;9986;50.610;7.230;2022-07-18T16:19:15;6.28;;;1.77;;
19673;SDS011;9986;50.610;7.230;2022-07-18T16:21:56;3.08;;;1.45;;
19673;SDS011;9986;50.610;7.230;2022-07-18T16:27:03;3.27;;;1.85;;
19673;SDS011;9986;50.610;7.230;2022-07-18T16:29:41;2.92;;;1.92;;
19673;SDS011;9986;50.610;7.230;2022-07-18T16:32:22;5.00;;;1.40;;
19673;SDS011;9986;50.610;7.230;2022-07-18T16:35:00;2.90;;;1.40;;
19673;SDS011;9986;50.610;7.230;2022-07-18T16:40:14;2.80;;;1.25;;
19673;SDS011;9986;50.610;7.230;2022-07-18T16:42:52;6.30;;;1.85;;
19673;SDS011;9986;50.610;7.230;2022-07-18T16:45:31;3.20;;;1.57;;
19673;SDS011;9986;50.610;7.230;2022-07-18T16:48:10;4.75;;;2.10;;
19673;SDS011;9986;50.610;7.230;2022-07-18T16:55:55;1.95;;;1.27;;
19673;SDS011;9986;50.610;7.230;2022-07-18T16:58:37;5.00;;;1.52;;
19673;SDS011;9986;50.610;7.230;2022-07-18T17:01:15;2.70;;;1.75;;
19673;SDS011;9986;50.610;7.230;2022-07-18T17:03:53;1.67;;;1.55;;
19673;SDS011;9986;50.610;7.230;2022-07-18T17:09:01;4.20;;;1.62;;
19673;SDS011;9986;50.610;7.230;2022-07-18T17:11:39;2.35;;;1.55;;
19673;SDS011;9986;50.610;7.230;2022-07-18T17:14:17;3.05;;;1.90;;
19673;SDS011;9986;50.610;7.230;2022-07-18T17:16:58;4.08;;;1.80;;
19673;SDS011;9986;50.610;7.230;2022-07-18T17:19:39;2.95;;;1.52;;
19673;SDS011;9986;50.610;7.230;2022-07-18T17:25:03;4.03;;;1.20;;
19673;SDS011;9986;50.610;7.230;2022-07-18T17:27:42;6.92;;;1.40;;
19673;SDS011;9986;50.610;7.230;2022-07-18T17:30:20;3.55;;;1.40;;
19673;SDS011;9986;50.610;7.230;2022-07-18T17:32:58;1.92;;;1.30;;
19673;SDS011;9986;50.610;7.230;2022-07-18T17:35:37;1.42;;;1.30;;
19673;SDS011;9986;50.610;7.230;2022-07-18T17:38:15;1.92;;;1.30;;
19673;SDS011;9986;50.610;7.230;2022-07-18T17:40:54;1.30;;;1.22;;
19673;SDS011;9986;50.610;7.230;2022-07-18T17:46:12;3.35;;;1.65;;
19673;SDS011;9986;50.610;7.230;2022-07-18T17:48:50;4.78;;;1.27;;
19673;SDS011;9986;50.610;7.230;2022-07-18T17:54:05;3.85;;;1.32;;
19673;SDS011;9986;50.610;7.230;2022-07-18T17:59:19;1.65;;;1.30;;
19673;SDS011;9986;50.610;7.230;2022-07-18T18:04:35;2.40;;;1.30;;
19673;SDS011;9986;50.610;7.230;2022-07-18T18:09:49;2.95;;;1.10;;
19673;SDS011;9986;50.610;7.230;2022-07-18T18:14:58;1.70;;;1.50;;
19673;SDS011;9986;50.610;7.230;2022-07-18T18:17:37;1.90;;;1.57;;
19673;SDS011;9986;50.610;7.230;2022-07-18T18:20:15;2.22;;;1.45;;
19673;SDS011;9986;50.610;7.230;2022-07-18T18:22:53;3.40;;;1.60;;
19673;SDS011;9986;50.610;7.230;2022-07-18T18:25:37;3.85;;;1.50;;
19673;SDS011;9986;50.610;7.230;2022-07-18T18:28:17;4.08;;;1.50;;
19673;SDS011;9986;50.610;7.230;2022-07-18T18:30:54;2.55;;;1.60;;
19673;SDS011;9986;50.610;7.230;2022-07-18T18:33:32;3.27;;;1.57;;
19673;SDS011;9986;50.610;7.230;2022-07-18T18:38:45;1.45;;;1.35;;
19673;SDS011;9986;50.610;7.230;2022-07-18T18:43:53;4.08;;;1.40;;
19673;SDS011;9986;50.610;7.230;2022-07-18T18:46:31;2.65;;;1.40;;
19673;SDS011;9986;50.610;7.230;2022-07-18T18:49:08;6.42;;;1.82;;
19673;SDS011;9986;50.610;7.230;2022-07-18T18:51:47;3.77;;;1.50;;
19673;SDS011;9986;50.610;7.230;2022-07-18T18:54:25;1.98;;;1.47;;
19673;SDS011;9986;50.610;7.230;2022-07-18T18:57:03;2.67;;;1.40;;
19673;SDS011;9986;50.610;7.230;2022-07-18T18:59:46;7.22;;;1.47;;
19673;SDS011;9986;50.610;7.230;2022-07-18T19:02:24;1.98;;;1.60;;
19673;SDS011;9986;50.610;7.230;2022-07-18T19:05:02;5.30;;;1.57;;
19673;SDS011;9986;50.610;7.230;2022-07-18T19:07:40;1.47;;;1.37;;
19673;SDS011;9986;50.610;7.230;2022-07-18T19:10:17;2.25;;;1.40;;
19673;SDS011;9986;50.610;7.230;2022-07-18T19:15:25;2.72;;;1.40;;
19673;SDS011;9986;50.610;7.230;2022-07-18T19:18:02;3.67;;;1.55;;
19673;SDS011;9986;50.610;7.230;2022-07-18T19:20:40;1.95;;;1.25;;
19673;SDS011;9986;50.610;7.230;2022-07-18T19:23:26;3.52;;;1.50;;
19673;SDS011;9986;50.610;7.230;2022-07-18T19:26:04;3.25;;;1.62;;
19673;SDS011;9986;50.610;7.230;2022-07-18T19:28:41;3.95;;;1.65;;
19673;SDS011;9986;50.610;7.230;2022-07-18T19:33:48;1.32;;;1.22;;
19673;SDS011;9986;50.610;7.230;2022-07-18T19:36:32;1.72;;;1.50;;
19673;SDS011;9986;50.610;7.230;2022-07-18T19:41:39;3.25;;;1.67;;
19673;SDS011;9986;50.610;7.230;2022-07-18T19:44:17;3.45;;;1.85;;
19673;SDS011;9986;50.610;7.230;2022-07-18T19:46:55;2.37;;;1.70;;
19673;SDS011;9986;50.610;7.230;2022-07-18T19:49:32;1.37;;;1.15;;
19673;SDS011;9986;50.610;7.230;2022-07-18T19:52:10;6.55;;;1.80;;
19673;SDS011;9986;50.610;7.230;2022-07-18T19:54:49;4.15;;;1.77;;
19673;SDS011;9986;50.610;7.230;2022-07-18T19:57:27;3.80;;;1.90;;
19673;SDS011;9986;50.610;7.230;2022-07-18T20:00:12;3.72;;;1.87;;
19673;SDS011;9986;50.610;7.230;2022-07-18T20:02:50;3.25;;;1.50;;
19673;SDS011;9986;50.610;7.230;2022-07-18T20:05:28;3.52;;;1.85;;
19673;SDS011;9986;50.610;7.230;2022-07-18T20:10:38;2.50;;;1.35;;
19673;SDS011;9986;50.610;7.230;2022-07-18T20:13:18;2.70;;;1.50;;
19673;SDS011;9986;50.610;7.230;2022-07-18T20:15:55;2.05;;;1.60;;
19673;SDS011;9986;50.610;7.230;2022-07-18T20:18:39;4.33;;;1.70;;
19673;SDS011;9986;50.610;7.230;2022-07-18T20:23:46;2.47;;;1.65;;
19673;SDS011;9986;50.610;7.230;2022-07-18T20:26:24;1.87;;;1.60;;
19673;SDS011;9986;50.610;7.230;2022-07-18T20:34:07;3.05;;;1.70;;
19673;SDS011;9986;50.610;7.230;2022-07-18T20:36:44;3.10;;;1.70;;
19673;SDS011;9986;50.610;7.230;2022-07-18T20:39:22;3.50;;;1.55;;
19673;SDS011;9986;50.610;7.230;2022-07-18T20:42:00;2.77;;;1.52;;
19673;SDS011;9986;50.610;7.230;2022-07-18T20:47:07;2.87;;;1.50;;
19673;SDS011;9986;50.610;7.230;2022-07-18T20:49:45;2.08;;;1.70;;
19673;SDS011;9986;50.610;7.230;2022-07-18T20:52:26;3.62;;;1.95;;
19673;SDS011;9986;50.610;7.230;2022-07-18T20:55:04;4.80;;;1.75;;